Time;durP1;ratioP1;P1;durP2;ratioP2;P2;SDS_P1;SDS_P2;PMS_P1;PMS_P2;Temp;Humidity;BMP_temperature;BMP_pressure;BME280_temperature;BME280_humidity;BME280_pressure;Samples;Min_cycle;Max_cycle;Signal;HPM_P1;HPM_P2
2023/08/19 00:01:36;;;;;;;6.87;6.50;;;24.80;23.00;;;;;;5116395;27;20172;-56
2023/08/19 00:04:02;;;;;;;6.93;6.53;;;24.80;22.90;;;;;;5116727;27;20177;-56
2023/08/19 00:06:35;;;;;;;6.53;6.20;;;24.80;22.90;;;;;;5116465;27;20177;-56
2023/08/19 00:09:04;;;;;;;7.40;7.00;;;24.80;23.00;;;;;;5134498;27;20211;-55
2023/08/19 00:11:35;;;;;;;7.47;6.80;;;24.70;23.00;;;;;;5116254;27;20410;-56
2023/08/19 00:14:03;;;;;;;6.90;6.40;;;24.70;23.10;;;;;;5116385;27;20473;-56
2023/08/19 00:16:29;;;;;;;7.20;6.80;;;24.70;23.30;;;;;;5116098;27;20410;-59
2023/08/19 00:18:55;;;;;;;7.17;6.67;;;24.70;23.50;;;;;;5116068;27;20410;-59
2023/08/19 00:21:21;;;;;;;7.03;6.50;;;24.70;23.80;;;;;;5116355;27;20744;-59
2023/08/19 00:23:46;;;;;;;7.47;6.70;;;24.60;24.20;;;;;;5116179;27;21047;-59
2023/08/19 00:26:12;;;;;;;8.23;7.30;;;24.60;24.40;;;;;;5116328;27;20226;-59
2023/08/19 00:28:41;;;;;;;7.70;7.20;;;24.60;24.70;;;;;;5115636;27;20873;-60
2023/08/19 00:31:07;;;;;;;8.03;7.43;;;24.50;24.70;;;;;;5115286;27;20211;-60
2023/08/19 00:33:33;;;;;;;7.73;7.23;;;24.50;24.50;;;;;;5115831;27;20549;-60
2023/08/19 00:35:59;;;;;;;7.90;7.50;;;24.50;24.50;;;;;;5115867;27;20756;-59
2023/08/19 00:38:24;;;;;;;7.83;7.23;;;24.50;24.50;;;;;;5115673;27;20414;-60
2023/08/19 00:40:50;;;;;;;7.33;7.03;;;24.50;24.20;;;;;;5116031;27;20547;-60
2023/08/19 00:43:16;;;;;;;7.27;6.87;;;24.50;24.40;;;;;;5115785;27;20512;-59
2023/08/19 00:45:46;;;;;;;7.77;7.37;;;24.50;24.50;;;;;;5115708;27;20188;-59
2023/08/19 00:48:14;;;;;;;7.33;6.83;;;24.50;24.70;;;;;;5115596;27;20173;-60
2023/08/19 00:50:40;;;;;;;7.50;6.90;;;24.50;24.70;;;;;;5115528;27;20442;-60
2023/08/19 00:53:07;;;;;;;7.77;7.37;;;24.40;24.70;;;;;;5115711;27;20452;-60
2023/08/19 00:55:33;;;;;;;8.90;8.40;;;24.40;24.70;;;;;;5133997;27;20859;-59
2023/08/19 00:58:01;;;;;;;8.10;7.30;;;24.30;24.60;;;;;;5115488;27;20448;-60
2023/08/19 01:00:30;;;;;;;7.67;7.00;;;24.30;24.60;;;;;;5115539;27;20418;-60
2023/08/19 01:02:55;;;;;;;7.20;6.80;;;24.30;24.60;;;;;;5115491;27;20478;-60
2023/08/19 01:05:28;;;;;;;8.43;7.00;;;24.30;24.60;;;;;;5115415;27;20993;-60
2023/08/19 01:07:58;;;;;;;7.53;7.13;;;24.30;24.60;;;;;;5115153;27;20181;-60
2023/08/19 01:10:27;;;;;;;7.67;7.20;;;24.30;24.60;;;;;;5115435;27;20448;-60
2023/08/19 01:13:01;;;;;;;7.67;7.20;;;24.30;24.60;;;;;;5115238;27;20504;-59
2023/08/19 01:15:32;;;;;;;8.13;7.53;;;24.20;24.50;;;;;;5115190;27;20402;-60
2023/08/19 01:17:59;;;;;;;7.43;6.93;;;24.30;24.60;;;;;;5114671;27;20399;-56
2023/08/19 01:20:31;;;;;;;7.60;7.20;;;24.20;24.70;;;;;;5114841;27;20403;-56
2023/08/19 01:23:12;;;;;;;7.90;7.40;;;24.20;25.00;;;;;;5114967;27;20407;-56
2023/08/19 01:25:38;;;;;;;8.20;7.70;;;24.20;25.00;;;;;;5114786;27;20430;-56
2023/08/19 01:28:04;;;;;;;7.10;6.70;;;24.20;25.10;;;;;;5114515;27;20423;-56
2023/08/19 01:30:31;;;;;;;7.60;7.20;;;24.20;25.20;;;;;;5114767;27;20446;-56
2023/08/19 01:32:57;;;;;;;7.50;7.20;;;24.20;25.30;;;;;;5114696;27;20451;-57
2023/08/19 01:35:24;;;;;;;6.87;6.47;;;24.20;25.30;;;;;;5114687;27;20406;-56
2023/08/19 01:37:55;;;;;;;7.67;7.03;;;24.10;25.30;;;;;;5114433;27;20407;-56
2023/08/19 01:40:22;;;;;;;7.83;7.00;;;24.20;25.40;;;;;;5114665;27;20413;-57
2023/08/19 01:42:49;;;;;;;7.00;6.60;;;24.20;25.50;;;;;;5114487;27;20403;-59
2023/08/19 01:45:16;;;;;;;6.70;6.30;;;24.10;25.30;;;;;;5114932;27;20410;-60
2023/08/19 01:47:44;;;;;;;7.77;7.17;;;24.10;25.50;;;;;;5132683;27;20925;-56
2023/08/19 01:50:10;;;;;;;7.13;6.83;;;24.10;25.40;;;;;;5114290;27;20797;-56
2023/08/19 01:52:37;;;;;;;7.17;6.63;;;24.10;25.50;;;;;;5114306;27;20403;-56
2023/08/19 01:55:02;;;;;;;7.40;6.90;;;24.10;25.70;;;;;;5114504;27;20210;-56
2023/08/19 01:57:28;;;;;;;7.57;7.17;;;24.00;25.60;;;;;;5113892;27;20414;-56
2023/08/19 01:59:55;;;;;;;7.50;7.10;;;24.00;25.90;;;;;;5114178;27;20180;-57
2023/08/19 02:02:21;;;;;;;8.37;7.87;;;23.90;26.10;;;;;;5114273;28;20406;-56
2023/08/19 02:04:47;;;;;;;7.83;7.40;;;23.90;26.30;;;;;;5114230;27;20429;-56
2023/08/19 02:07:13;;;;;;;7.50;7.00;;;23.90;26.30;;;;;;5114013;27;20411;-55
2023/08/19 02:09:39;;;;;;;7.23;6.93;;;23.90;26.50;;;;;;5113900;27;20192;-56
2023/08/19 02:12:05;;;;;;;7.33;6.90;;;23.90;26.50;;;;;;5114206;27;20165;-56
2023/08/19 02:14:30;;;;;;;7.77;7.00;;;23.90;26.60;;;;;;5114091;27;20469;-56
2023/08/19 02:16:56;;;;;;;8.27;7.53;;;23.80;26.70;;;;;;5114047;28;20418;-56
2023/08/19 02:19:21;;;;;;;7.60;7.03;;;23.80;26.80;;;;;;5113952;27;20180;-56
2023/08/19 02:21:47;;;;;;;6.67;6.33;;;23.80;26.60;;;;;;5114178;28;20569;-56
2023/08/19 02:24:13;;;;;;;7.57;7.07;;;23.80;26.70;;;;;;5114129;28;20215;-55
2023/08/19 02:26:38;;;;;;;7.73;7.23;;;23.80;26.80;;;;;;5113818;27;20181;-56
2023/08/19 02:29:04;;;;;;;7.20;6.70;;;23.80;26.80;;;;;;5096773;28;20209;-55
2023/08/19 02:31:30;;;;;;;7.33;6.80;;;23.80;26.90;;;;;;5113903;27;20189;-60
2023/08/19 02:33:55;;;;;;;7.43;6.93;;;23.80;27.10;;;;;;5113936;28;20226;-55
2023/08/19 02:36:21;;;;;;;7.80;7.40;;;23.80;27.10;;;;;;5113827;28;20185;-56
2023/08/19 02:38:47;;;;;;;7.00;6.70;;;23.70;27.20;;;;;;5113399;28;20165;-56
2023/08/19 02:41:13;;;;;;;7.43;6.93;;;23.70;27.10;;;;;;5113886;28;20494;-56
2023/08/19 02:43:38;;;;;;;7.60;7.00;;;23.70;27.00;;;;;;5113715;28;20180;-54
2023/08/19 02:46:04;;;;;;;7.20;6.80;;;23.70;26.90;;;;;;5113948;28;20173;-56
2023/08/19 02:48:30;;;;;;;7.73;7.03;;;23.70;27.10;;;;;;5113103;28;20531;-54
2023/08/19 02:50:56;;;;;;;7.77;7.37;;;23.70;27.00;;;;;;5113625;28;20431;-56
2023/08/19 02:53:22;;;;;;;7.43;6.83;;;23.70;27.10;;;;;;5114538;27;20446;-56
2023/08/19 02:55:52;;;;;;;7.50;7.10;;;23.70;27.10;;;;;;5117801;27;20175;-55
2023/08/19 02:58:18;;;;;;;8.00;7.37;;;23.60;27.20;;;;;;5117294;27;20410;-55
2023/08/19 03:00:46;;;;;;;7.80;7.30;;;23.60;27.20;;;;;;5117655;27;20425;-56
2023/08/19 03:03:12;;;;;;;8.20;7.60;;;23.60;27.30;;;;;;5117762;27;20422;-54
2023/08/19 03:05:39;;;;;;;6.93;6.63;;;23.60;27.50;;;;;;5117755;27;20406;-56
2023/08/19 03:08:06;;;;;;;8.03;7.60;;;23.60;27.60;;;;;;5117531;27;20484;-59
2023/08/19 03:10:37;;;;;;;7.57;7.20;;;23.60;27.90;;;;;;5117602;27;20414;-60
2023/08/19 03:13:06;;;;;;;8.63;7.97;;;23.60;28.10;;;;;;5117504;27;20469;-59
2023/08/19 03:15:33;;;;;;;8.40;7.70;;;23.60;28.20;;;;;;5117488;27;20440;-59
2023/08/19 03:17:59;;;;;;;8.33;7.63;;;23.50;28.20;;;;;;5117259;27;20427;-59
2023/08/19 03:20:25;;;;;;;8.77;8.17;;;23.50;28.20;;;;;;5117127;27;20415;-59
2023/08/19 03:22:51;;;;;;;8.40;7.90;;;23.50;28.20;;;;;;5117471;27;20181;-59
2023/08/19 03:25:16;;;;;;;7.50;7.10;;;23.50;28.20;;;;;;5117570;27;20622;-59
2023/08/19 03:27:42;;;;;;;8.20;7.63;;;23.40;28.40;;;;;;5117159;27;20169;-59
2023/08/19 03:30:08;;;;;;;8.53;8.00;;;23.40;28.30;;;;;;5117085;27;20192;-60
2023/08/19 03:32:34;;;;;;;8.47;7.87;;;23.40;28.20;;;;;;5117017;27;20170;-60
2023/08/19 03:35:00;;;;;;;8.80;8.10;;;23.40;28.20;;;;;;5117111;27;20430;-60
2023/08/19 03:37:26;;;;;;;8.90;8.30;;;23.40;28.20;;;;;;5116786;27;20517;-60
2023/08/19 03:39:51;;;;;;;8.73;8.10;;;23.40;28.20;;;;;;5116829;27;20173;-60
2023/08/19 03:42:17;;;;;;;8.13;7.60;;;23.40;28.30;;;;;;5116962;27;20608;-60
2023/08/19 03:44:43;;;;;;;8.40;7.80;;;23.40;28.30;;;;;;5116920;27;20177;-59
2023/08/19 03:47:13;;;;;;;7.07;6.57;;;23.40;28.50;;;;;;5116733;27;20977;-60
2023/08/19 03:49:39;;;;;;;8.23;7.63;;;23.40;28.70;;;;;;5116390;27;20192;-59
2023/08/19 03:52:06;;;;;;;7.73;7.27;;;23.30;28.70;;;;;;5116862;27;20471;-60
2023/08/19 03:54:32;;;;;;;8.60;8.00;;;23.30;28.70;;;;;;5116477;27;20974;-60
2023/08/19 03:56:57;;;;;;;8.13;7.60;;;23.30;28.70;;;;;;5116526;27;20414;-56
2023/08/19 03:59:23;;;;;;;8.00;7.47;;;23.30;28.50;;;;;;5116407;27;20621;-55
2023/08/19 04:01:49;;;;;;;7.67;7.27;;;23.30;28.50;;;;;;5116704;27;20257;-57
2023/08/19 04:04:14;;;;;;;8.37;7.90;;;23.30;28.40;;;;;;5099441;27;20215;-54
2023/08/19 04:06:40;;;;;;;8.10;7.60;;;23.30;28.50;;;;;;5115946;27;20173;-55
2023/08/19 04:09:07;;;;;;;9.10;8.60;;;23.30;28.50;;;;;;5116699;27;20253;-56
2023/08/19 04:11:32;;;;;;;8.40;8.00;;;23.30;28.80;;;;;;5116719;27;20522;-56
2023/08/19 04:13:58;;;;;;;8.53;8.13;;;23.30;28.90;;;;;;5116800;27;20900;-59
2023/08/19 04:16:24;;;;;;;8.20;7.70;;;23.30;28.90;;;;;;5116798;27;20169;-60
2023/08/19 04:18:50;;;;;;;8.97;8.17;;;23.30;28.80;;;;;;5116167;27;20268;-60
2023/08/19 04:21:17;;;;;;;9.07;8.33;;;23.30;28.80;;;;;;5116456;27;20252;-60
2023/08/19 04:23:42;;;;;;;8.77;8.10;;;23.30;28.80;;;;;;5116331;27;20506;-60
2023/08/19 04:26:08;;;;;;;8.90;8.30;;;23.20;28.80;;;;;;5116562;27;20493;-61
2023/08/19 04:28:34;;;;;;;8.10;7.70;;;23.20;28.90;;;;;;5124199;27;20525;-59
2023/08/19 04:31:04;;;;;;;8.10;7.70;;;23.20;29.00;;;;;;5127275;27;20208;-59
2023/08/19 04:33:30;;;;;;;7.67;7.23;;;23.20;29.10;;;;;;5131985;27;20196;-58
2023/08/19 04:35:55;;;;;;;8.70;8.20;;;23.20;29.20;;;;;;5136832;27;20434;-56
2023/08/19 04:38:21;;;;;;;9.50;9.00;;;23.20;29.20;;;;;;5136555;27;20465;-55
2023/08/19 04:40:47;;;;;;;9.97;9.33;;;23.20;29.50;;;;;;5136927;27;20179;-56
2023/08/19 04:43:12;;;;;;;9.20;8.53;;;23.20;29.40;;;;;;5135207;27;20216;-57
2023/08/19 04:45:38;;;;;;;9.40;8.87;;;23.20;29.20;;;;;;5129380;27;20276;-56
2023/08/19 04:48:07;;;;;;;8.83;8.20;;;23.20;29.20;;;;;;5136396;27;20169;-57
2023/08/19 04:50:33;;;;;;;8.90;8.30;;;23.20;29.30;;;;;;5136573;27;20199;-57
2023/08/19 04:52:59;;;;;;;9.00;8.50;;;23.20;29.60;;;;;;5136564;27;20467;-58
2023/08/19 04:55:26;;;;;;;8.90;8.40;;;23.20;29.50;;;;;;5136244;27;20209;-58
2023/08/19 04:57:51;;;;;;;9.20;8.60;;;23.20;29.60;;;;;;5136365;27;20207;-57
2023/08/19 05:00:17;;;;;;;7.90;7.50;;;23.20;29.60;;;;;;5135915;27;20906;-60
2023/08/19 05:02:43;;;;;;;9.37;8.73;;;23.20;29.60;;;;;;5135631;27;20168;-60
2023/08/19 05:05:08;;;;;;;8.90;8.23;;;23.20;29.50;;;;;;5136107;27;20229;-61
2023/08/19 05:07:34;;;;;;;9.80;9.20;;;23.20;29.60;;;;;;5135718;27;20639;-61
2023/08/19 05:10:00;;;;;;;9.20;8.60;;;23.20;29.40;;;;;;5135766;27;20171;-60
2023/08/19 05:12:25;;;;;;;9.27;8.67;;;23.20;29.30;;;;;;5135794;27;20187;-60
2023/08/19 05:14:52;;;;;;;9.73;9.13;;;23.20;29.30;;;;;;5135828;27;20211;-60
2023/08/19 05:17:18;;;;;;;10.20;9.17;;;23.20;29.40;;;;;;5135140;27;20172;-60
2023/08/19 05:19:44;;;;;;;9.40;8.70;;;23.10;29.60;;;;;;5135315;27;20517;-56
2023/08/19 05:22:09;;;;;;;9.77;9.00;;;23.10;29.40;;;;;;5135536;27;20454;-55
2023/08/19 05:24:35;;;;;;;8.83;8.43;;;23.10;29.30;;;;;;5135579;27;20406;-56
2023/08/19 05:27:01;;;;;;;9.23;8.60;;;23.20;29.20;;;;;;5135322;27;20709;-56
2023/08/19 05:29:26;;;;;;;9.93;9.00;;;23.20;29.10;;;;;;5135214;27;20442;-55
2023/08/19 05:31:52;;;;;;;9.20;8.70;;;23.20;29.00;;;;;;5135396;27;20647;-55
2023/08/19 05:34:18;;;;;;;9.23;8.40;;;23.20;29.30;;;;;;5135137;27;20468;-56
2023/08/19 05:36:44;;;;;;;9.00;8.13;;;23.20;29.20;;;;;;5135188;27;20471;-56
2023/08/19 05:39:10;;;;;;;9.40;8.70;;;23.20;29.00;;;;;;5134900;27;20171;-56
2023/08/19 05:41:36;;;;;;;8.30;7.90;;;23.20;28.90;;;;;;5135113;27;20169;-59
2023/08/19 05:44:03;;;;;;;8.20;7.80;;;23.20;28.60;;;;;;5135278;27;20539;-61
2023/08/19 05:46:28;;;;;;;9.13;8.40;;;23.20;28.60;;;;;;5134930;27;20804;-60
2023/08/19 05:48:54;;;;;;;8.87;8.10;;;23.20;28.70;;;;;;5134839;27;20479;-60
2023/08/19 05:51:20;;;;;;;9.03;8.43;;;23.20;29.00;;;;;;5134944;27;20434;-60
2023/08/19 05:53:46;;;;;;;8.80;8.20;;;23.20;28.70;;;;;;5134961;27;20205;-61
2023/08/19 05:56:12;;;;;;;9.37;8.87;;;23.20;28.00;;;;;;5135081;27;20611;-60
2023/08/19 05:58:38;;;;;;;9.90;9.17;;;23.20;28.40;;;;;;5134285;27;20438;-60
2023/08/19 06:01:06;;;;;;;9.93;9.37;;;23.30;28.60;;;;;;5134094;27;20176;-62
2023/08/19 06:03:31;;;;;;;9.17;8.63;;;23.30;29.10;;;;;;5133941;27;20184;-56
2023/08/19 06:05:57;;;;;;;9.67;9.13;;;23.30;28.10;;;;;;5134391;27;20418;-56
2023/08/19 06:08:22;;;;;;;9.30;8.60;;;23.30;27.80;;;;;;5134080;27;20230;-56
2023/08/19 06:11:06;;;;;;;9.53;9.03;;;23.40;27.50;;;;;;5134543;27;20526;-55
2023/08/19 06:13:36;;;;;;;9.20;8.60;;;23.50;27.00;;;;;;5134099;27;20200;-55
2023/08/19 06:16:06;;;;;;;10.73;9.80;;;23.50;26.80;;;;;;5134753;27;20416;-57
2023/08/19 06:18:32;;;;;;;9.30;8.80;;;23.50;27.60;;;;;;5133040;27;20739;-59
2023/08/19 06:20:58;;;;;;;9.90;9.30;;;23.60;27.70;;;;;;5133881;27;20429;-60
2023/08/19 06:23:24;;;;;;;8.63;8.00;;;23.60;27.60;;;;;;5134437;27;20497;-60
2023/08/19 06:25:52;;;;;;;9.63;8.93;;;23.60;27.80;;;;;;5134350;27;20493;-59
2023/08/19 06:28:18;;;;;;;9.53;8.90;;;23.60;27.00;;;;;;5133365;27;20176;-57
2023/08/19 06:30:45;;;;;;;9.90;8.90;;;23.70;26.70;;;;;;5132966;27;20913;-57
2023/08/19 06:33:11;;;;;;;8.87;8.43;;;23.70;26.00;;;;;;5134522;27;20473;-57
2023/08/19 06:35:37;;;;;;;9.20;8.70;;;23.70;26.00;;;;;;5134458;27;20700;-58
2023/08/19 06:38:34;;;;;;;9.37;8.70;;;23.80;26.70;;;;;;5134194;27;20414;-56
2023/08/19 06:41:11;;;;;;;9.20;8.70;;;23.80;25.30;;;;;;5129614;27;20410;-59
2023/08/19 06:43:40;;;;;;;10.10;9.50;;;23.90;25.20;;;;;;5134530;27;20904;-58
2023/08/19 06:46:07;;;;;;;9.93;9.00;;;24.10;24.60;;;;;;5134371;27;20415;-58
2023/08/19 06:48:34;;;;;;;8.83;8.20;;;24.10;25.00;;;;;;5133926;27;20874;-58
2023/08/19 06:51:01;;;;;;;8.90;8.30;;;24.20;24.60;;;;;;5134182;27;20930;-57
2023/08/19 06:53:27;;;;;;;9.10;8.50;;;24.20;24.50;;;;;;5134119;27;20483;-57
2023/08/19 06:56:12;;;;;;;8.20;7.70;;;24.30;24.10;;;;;;5152889;27;20503;-57
2023/08/19 06:58:43;;;;;;;9.13;8.53;;;24.40;23.90;;;;;;5152417;27;20433;-57
2023/08/19 07:01:23;;;;;;;9.40;8.70;;;24.40;24.70;;;;;;5134207;27;20441;-58
2023/08/19 07:03:51;;;;;;;8.67;8.07;;;24.50;24.70;;;;;;5134252;27;20422;-57
2023/08/19 07:06:20;;;;;;;9.53;8.83;;;24.50;24.40;;;;;;5134225;27;20443;-57
2023/08/19 07:08:46;;;;;;;9.30;8.83;;;24.50;24.70;;;;;;5133616;27;20428;-57
2023/08/19 07:11:14;;;;;;;9.10;8.60;;;24.50;24.80;;;;;;5152772;27;20591;-57
2023/08/19 07:13:40;;;;;;;9.80;9.20;;;24.50;24.40;;;;;;5133987;27;20570;-57
2023/08/19 07:16:07;;;;;;;9.30;8.53;;;24.60;24.70;;;;;;5133973;27;20406;-58
2023/08/19 07:18:41;;;;;;;8.33;7.87;;;24.60;24.50;;;;;;5133570;27;20921;-57
2023/08/19 07:21:10;;;;;;;9.60;9.00;;;24.60;24.40;;;;;;5133977;27;20414;-58
2023/08/19 07:23:39;;;;;;;9.47;8.73;;;24.70;24.40;;;;;;5133912;27;20975;-58
2023/08/19 07:26:05;;;;;;;9.40;8.77;;;24.70;24.50;;;;;;5134057;27;20414;-57
2023/08/19 07:28:32;;;;;;;11.93;9.33;;;24.80;24.20;;;;;;5152069;27;20420;-58
2023/08/19 07:30:59;;;;;;;9.50;8.60;;;24.80;23.70;;;;;;5133946;27;20191;-57
2023/08/19 07:33:24;;;;;;;9.80;9.17;;;25.00;22.80;;;;;;5152298;27;20485;-57
2023/08/19 07:35:50;;;;;;;9.83;9.07;;;25.10;23.40;;;;;;5133936;27;20446;-57
2023/08/19 07:38:16;;;;;;;9.50;9.00;;;25.10;23.20;;;;;;5133586;27;20575;-57
2023/08/19 07:40:41;;;;;;;10.67;9.67;;;25.10;22.80;;;;;;5136742;27;20187;-59
2023/08/19 07:43:07;;;;;;;10.53;9.50;;;25.10;22.80;;;;;;5137731;27;20204;-59
2023/08/19 07:45:33;;;;;;;9.70;8.90;;;25.20;23.20;;;;;;5137606;27;20180;-59
2023/08/19 07:47:58;;;;;;;10.13;9.40;;;25.20;23.40;;;;;;5136826;27;20188;-59
2023/08/19 07:50:24;;;;;;;11.20;10.50;;;25.20;23.40;;;;;;5137221;27;20193;-59
2023/08/19 07:52:50;;;;;;;9.73;9.13;;;25.30;23.60;;;;;;5137282;27;20593;-60
2023/08/19 07:55:15;;;;;;;10.67;9.97;;;25.30;22.50;;;;;;5137335;27;20764;-59
2023/08/19 07:57:41;;;;;;;10.60;9.73;;;25.40;22.60;;;;;;5136987;27;20213;-60
2023/08/19 08:00:08;;;;;;;11.20;10.20;;;25.70;21.60;;;;;;5137034;27;20176;-60
2023/08/19 08:02:34;;;;;;;11.10;10.30;;;25.90;20.50;;;;;;5134870;27;20180;-59
2023/08/19 08:05:02;;;;;;;10.23;9.73;;;26.00;21.10;;;;;;5136564;27;20414;-60
2023/08/19 08:07:27;;;;;;;12.00;9.90;;;26.10;20.80;;;;;;5136642;27;20279;-57
2023/08/19 08:09:53;;;;;;;13.63;9.67;;;26.10;20.90;;;;;;5136745;27;21004;-58
2023/08/19 08:12:19;;;;;;;10.57;9.60;;;26.20;20.80;;;;;;5136515;27;20508;-57
2023/08/19 08:14:44;;;;;;;10.33;9.57;;;26.20;20.50;;;;;;5136843;27;20212;-60
2023/08/19 08:17:10;;;;;;;10.30;9.73;;;26.20;21.00;;;;;;5135794;27;20632;-59
2023/08/19 08:19:36;;;;;;;13.67;10.70;;;26.30;21.50;;;;;;5135723;27;20179;-59
2023/08/19 08:22:01;;;;;;;10.30;9.40;;;26.30;20.80;;;;;;5136589;27;20179;-59
2023/08/19 08:24:27;;;;;;;10.90;10.30;;;26.60;19.10;;;;;;5136865;27;20191;-59
2023/08/19 08:26:53;;;;;;;11.07;10.13;;;26.60;19.50;;;;;;5137041;27;20181;-57
2023/08/19 08:29:19;;;;;;;11.20;10.27;;;26.60;19.90;;;;;;5135011;27;20179;-57
2023/08/19 08:31:44;;;;;;;11.27;10.57;;;26.60;18.90;;;;;;5136440;27;20184;-58
2023/08/19 08:34:10;;;;;;;10.57;9.90;;;26.70;19.10;;;;;;5136630;27;20544;-57
2023/08/19 08:36:36;;;;;;;11.90;10.80;;;27.00;16.90;;;;;;5136311;27;20643;-58
2023/08/19 08:39:02;;;;;;;10.53;9.80;;;27.10;17.50;;;;;;5136371;27;20172;-60
2023/08/19 08:41:28;;;;;;;10.87;10.00;;;27.10;17.20;;;;;;5136409;27;20737;-60
2023/08/19 08:43:56;;;;;;;10.77;9.87;;;27.10;17.50;;;;;;5136258;27;20518;-58
2023/08/19 08:46:25;;;;;;;11.43;8.97;;;27.10;14.80;;;;;;5136364;27;20410;-59
2023/08/19 08:48:52;;;;;;;12.17;10.33;;;27.20;13.80;;;;;;5135690;27;20435;-58
2023/08/19 08:51:19;;;;;;;9.03;8.50;;;27.30;15.50;;;;;;5135238;27;20532;-58
2023/08/19 08:53:47;;;;;;;9.20;8.60;;;27.30;15.70;;;;;;5135618;27;20506;-58
2023/08/19 08:56:13;;;;;;;10.13;9.60;;;27.50;14.10;;;;;;5136066;27;20409;-58
2023/08/19 08:58:39;;;;;;;9.63;8.93;;;27.80;13.80;;;;;;5135453;27;20410;-58
2023/08/19 09:01:07;;;;;;;9.70;9.10;;;27.80;13.70;;;;;;5136036;27;20449;-59
2023/08/19 09:03:33;;;;;;;10.97;10.17;;;28.00;14.00;;;;;;5135576;27;20480;-59
2023/08/19 09:06:07;;;;;;;10.53;9.93;;;28.00;14.30;;;;;;5135537;27;20425;-58
2023/08/19 09:08:42;;;;;;;11.07;10.47;;;27.90;14.80;;;;;;5135383;27;20409;-59
2023/08/19 09:11:12;;;;;;;11.43;10.60;;;27.80;14.50;;;;;;5135644;27;20416;-59
2023/08/19 09:13:39;;;;;;;10.43;9.60;;;27.90;14.10;;;;;;5135163;27;20498;-59
2023/08/19 09:16:10;;;;;;;11.90;11.10;;;27.90;13.90;;;;;;5136113;27;20427;-57
2023/08/19 09:18:36;;;;;;;11.73;10.70;;;27.80;14.30;;;;;;5130721;27;20425;-57
2023/08/19 09:21:02;;;;;;;11.60;10.30;;;27.90;14.10;;;;;;5142115;27;20410;-58
2023/08/19 09:23:30;;;;;;;10.93;10.13;;;28.00;13.20;;;;;;5139635;27;20501;-57
2023/08/19 09:25:57;;;;;;;10.13;9.53;;;28.20;13.20;;;;;;5135496;27;21119;-60
2023/08/19 09:28:23;;;;;;;10.73;10.13;;;28.40;12.50;;;;;;5151191;27;20444;-59
2023/08/19 09:30:48;;;;;;;10.90;10.30;;;28.60;13.00;;;;;;5134419;27;20452;-60
2023/08/19 09:33:19;;;;;;;10.70;10.00;;;28.90;11.90;;;;;;5135752;27;20202;-62
2023/08/19 09:35:54;;;;;;;11.60;9.93;;;29.10;12.00;;;;;;5135454;27;20251;-61
2023/08/19 09:38:20;;;;;;;10.20;9.50;;;29.20;11.90;;;;;;5131946;27;20429;-59
2023/08/19 09:40:57;;;;;;;10.23;9.57;;;29.30;11.70;;;;;;5135218;27;20745;-60
2023/08/19 09:43:23;;;;;;;10.03;9.23;;;29.50;11.40;;;;;;5135244;27;20425;-61
2023/08/19 09:45:49;;;;;;;9.07;8.47;;;29.60;10.60;;;;;;5134857;27;20414;-58
2023/08/19 09:48:15;;;;;;;10.80;9.73;;;29.90;10.10;;;;;;5134563;27;20414;-58
2023/08/19 09:50:45;;;;;;;10.20;9.50;;;30.00;10.80;;;;;;5115687;27;20223;-57
2023/08/19 09:53:15;;;;;;;8.60;8.10;;;30.00;10.80;;;;;;5134111;27;20457;-58
2023/08/19 09:55:45;;;;;;;9.90;9.30;;;30.20;9.30;;;;;;5132004;27;20977;-58
2023/08/19 09:58:11;;;;;;;9.47;8.70;;;30.50;8.90;;;;;;5133820;27;20925;-59
2023/08/19 10:00:38;;;;;;;10.77;10.07;;;30.80;8.20;;;;;;5133892;27;20410;-59
2023/08/19 10:03:05;;;;;;;10.60;10.00;;;30.90;9.20;;;;;;5130970;27;20207;-60
2023/08/19 10:05:34;;;;;;;10.27;9.47;;;30.80;9.80;;;;;;5133562;27;20473;-60
2023/08/19 10:08:03;;;;;;;10.10;9.50;;;30.80;9.10;;;;;;5133371;27;20450;-60
2023/08/19 10:10:36;;;;;;;9.80;9.30;;;30.80;8.30;;;;;;5132902;27;20429;-60
2023/08/19 10:13:04;;;;;;;9.27;8.67;;;30.80;7.80;;;;;;5132148;27;20440;-61
2023/08/19 10:15:33;;;;;;;11.17;9.90;;;30.80;8.00;;;;;;5133655;27;20426;-61
2023/08/19 10:18:03;;;;;;;8.73;8.03;;;30.80;8.40;;;;;;5133941;27;20882;-61
2023/08/19 10:20:32;;;;;;;14.43;10.10;;;30.80;9.00;;;;;;5133313;27;20414;-61
2023/08/19 10:23:00;;;;;;;9.67;9.07;;;31.10;8.80;;;;;;5134232;27;21019;-61
2023/08/19 10:25:26;;;;;;;10.27;9.57;;;31.30;8.20;;;;;;5133370;27;20426;-61
2023/08/19 10:27:53;;;;;;;10.17;8.97;;;31.40;7.30;;;;;;5133242;27;20422;-61
2023/08/19 10:30:28;;;;;;;9.33;8.83;;;31.40;6.50;;;;;;5133435;27;20518;-60
2023/08/19 10:32:53;;;;;;;9.93;9.27;;;31.40;6.50;;;;;;5133638;27;20432;-61
2023/08/19 10:35:19;;;;;;;10.10;9.40;;;31.40;7.30;;;;;;5132817;27;20406;-62
2023/08/19 10:37:51;;;;;;;10.70;10.00;;;31.40;7.50;;;;;;5132127;27;20169;-59
2023/08/19 10:40:26;;;;;;;10.77;9.97;;;31.60;6.90;;;;;;5134108;27;20515;-59
2023/08/19 10:42:58;;;;;;;10.57;9.80;;;31.80;6.50;;;;;;5140370;27;20769;-59
2023/08/19 10:45:31;;;;;;;10.13;9.53;;;31.80;6.40;;;;;;5134353;27;20458;-61
2023/08/19 10:47:57;;;;;;;10.10;9.60;;;31.80;6.50;;;;;;5133151;27;20945;-61
2023/08/19 10:50:25;;;;;;;10.33;9.73;;;31.80;6.00;;;;;;5152699;27;20430;-60
2023/08/19 10:53:01;;;;;;;12.70;10.50;;;31.70;6.70;;;;;;5134203;27;20169;-60
2023/08/19 10:55:27;;;;;;;10.70;10.10;;;31.90;6.50;;;;;;5133849;27;20425;-61
2023/08/19 10:57:53;;;;;;;10.50;9.70;;;32.20;5.90;;;;;;5133377;27;20906;-60
2023/08/19 11:00:23;;;;;;;10.50;9.80;;;32.10;5.70;;;;;;5133928;27;20172;-61
2023/08/19 11:02:49;;;;;;;10.20;9.60;;;32.10;6.60;;;;;;5133940;27;20430;-61
2023/08/19 11:05:25;;;;;;;10.70;9.87;;;32.10;5.90;;;;;;5134342;27;20406;-61
2023/08/19 11:07:51;;;;;;;10.17;9.30;;;32.20;4.70;;;;;;5133541;27;20418;-59
2023/08/19 11:10:16;;;;;;;10.40;9.60;;;32.20;5.10;;;;;;5134044;27;20932;-59
2023/08/19 11:12:45;;;;;;;10.10;9.47;;;32.20;4.90;;;;;;5134066;27;20410;-59
2023/08/19 11:15:11;;;;;;;9.83;9.00;;;32.30;4.60;;;;;;5136109;27;20291;-59
2023/08/19 11:17:37;;;;;;;11.63;9.13;;;32.40;4.10;;;;;;5137464;27;20506;-59
2023/08/19 11:20:10;;;;;;;9.80;9.30;;;32.40;3.90;;;;;;5137644;27;20466;-59
2023/08/19 11:22:47;;;;;;;10.00;9.37;;;32.20;5.10;;;;;;5134983;27;20191;-58
2023/08/19 11:25:14;;;;;;;10.03;9.23;;;32.10;3.70;;;;;;5153706;27;20417;-59
2023/08/19 11:27:39;;;;;;;9.63;8.70;;;32.20;2.80;;;;;;5137632;27;20432;-59
2023/08/19 11:30:10;;;;;;;9.50;8.90;;;32.20;2.90;;;;;;5137285;27;20922;-59
2023/08/19 11:32:36;;;;;;;9.27;8.60;;;32.00;3.10;;;;;;5137196;27;20226;-59
2023/08/19 11:35:02;;;;;;;10.37;9.63;;;31.90;3.40;;;;;;5137565;27;20454;-58
2023/08/19 11:37:29;;;;;;;9.63;9.10;;;31.80;4.00;;;;;;5137585;27;20191;-59
2023/08/19 11:39:55;;;;;;;10.33;9.53;;;31.70;4.20;;;;;;5136876;27;20430;-59
2023/08/19 11:42:20;;;;;;;10.20;9.50;;;31.80;3.10;;;;;;5137592;27;20861;-58
2023/08/19 11:44:46;;;;;;;9.07;8.50;;;31.90;2.70;;;;;;5137452;27;20493;-59
2023/08/19 11:47:13;;;;;;;10.57;9.70;;;31.80;2.90;;;;;;5137101;27;20196;-59
2023/08/19 11:49:42;;;;;;;9.27;8.57;;;31.70;3.00;;;;;;5136974;27;20444;-59
2023/08/19 11:52:07;;;;;;;9.37;8.80;;;31.60;3.60;;;;;;5137039;27;20418;-58
2023/08/19 11:54:33;;;;;;;9.77;9.07;;;31.80;2.90;;;;;;5136626;27;20453;-59
2023/08/19 11:57:02;;;;;;;9.63;9.03;;;31.90;3.90;;;;;;5154016;27;20573;-59
2023/08/19 11:59:37;;;;;;;9.50;9.00;;;31.90;3.50;;;;;;5135085;27;20242;-59
2023/08/19 12:02:04;;;;;;;10.23;9.23;;;32.00;3.90;;;;;;5134716;27;20467;-58
2023/08/19 12:04:32;;;;;;;9.20;8.70;;;31.90;5.00;;;;;;5135672;27;20406;-53
2023/08/19 12:07:02;;;;;;;10.47;9.50;;;31.80;3.60;;;;;;5136056;27;21158;-58
2023/08/19 12:09:32;;;;;;;15.60;14.43;;;31.80;3.70;;;;;;5117780;27;20514;-61
2023/08/19 12:12:09;;;;;;;10.47;9.40;;;31.60;4.10;;;;;;5139038;27;20411;-62
2023/08/19 12:14:37;;;;;;;10.10;9.40;;;31.50;3.90;;;;;;5114163;27;20969;-61
2023/08/19 12:17:04;;;;;;;10.00;9.47;;;31.50;3.90;;;;;;5114716;27;20459;-60
2023/08/19 12:19:30;;;;;;;9.97;9.40;;;31.60;3.30;;;;;;5115512;27;20448;-59
2023/08/19 12:21:56;;;;;;;9.73;9.13;;;31.50;4.00;;;;;;5114983;27;20450;-59
2023/08/19 12:24:21;;;;;;;9.27;8.77;;;31.40;4.20;;;;;;5133547;27;20169;-60
2023/08/19 12:26:47;;;;;;;9.00;8.60;;;31.40;4.20;;;;;;5113875;27;20508;-60
2023/08/19 12:29:12;;;;;;;9.67;9.07;;;31.50;3.60;;;;;;5114882;27;20637;-60
2023/08/19 12:31:38;;;;;;;8.70;8.20;;;31.60;4.40;;;;;;5115853;27;20170;-60
2023/08/19 12:34:04;;;;;;;9.47;8.77;;;31.60;4.00;;;;;;5115704;27;20689;-61
2023/08/19 12:36:29;;;;;;;9.60;8.90;;;31.60;5.30;;;;;;5115709;27;20169;-61
2023/08/19 12:38:55;;;;;;;11.60;10.83;;;31.60;5.90;;;;;;5115179;27;20169;-61
2023/08/19 12:41:21;;;;;;;9.27;8.67;;;31.60;5.80;;;;;;5112341;27;20264;-61
2023/08/19 12:43:47;;;;;;;9.20;8.50;;;31.60;6.00;;;;;;5115542;27;20173;-61
2023/08/19 12:46:15;;;;;;;10.50;8.67;;;31.50;5.90;;;;;;5115633;27;20467;-62